sensor_id;sensor_type;location;lat;lon;timestamp;P1;durP1;ratioP1;P2;durP2;ratioP2
60582;SDS011;46415;47.536;19.066;2023-02-15T00:00:09;17.45;;;8.85;;
60582;SDS011;46415;47.536;19.066;2023-02-15T00:03:15;18.23;;;10.25;;
60582;SDS011;46415;47.536;19.066;2023-02-15T00:06:19;20.40;;;9.48;;
60582;SDS011;46415;47.536;19.066;2023-02-15T00:09:21;12.65;;;9.18;;
60582;SDS011;46415;47.536;19.066;2023-02-15T00:12:24;15.27;;;8.35;;
60582;SDS011;46415;47.536;19.066;2023-02-15T00:15:27;18.62;;;9.88;;
60582;SDS011;46415;47.536;19.066;2023-02-15T00:18:30;13.38;;;7.80;;
60582;SDS011;46415;47.536;19.066;2023-02-15T00:21:34;19.17;;;7.90;;
60582;SDS011;46415;47.536;19.066;2023-02-15T00:24:38;16.98;;;9.30;;
60582;SDS011;46415;47.536;19.066;2023-02-15T00:27:41;19.60;;;9.00;;
60582;SDS011;46415;47.536;19.066;2023-02-15T00:30:44;12.25;;;9.25;;
60582;SDS011;46415;47.536;19.066;2023-02-15T00:33:47;18.95;;;8.80;;
60582;SDS011;46415;47.536;19.066;2023-02-15T00:36:49;16.27;;;9.02;;
60582;SDS011;46415;47.536;19.066;2023-02-15T00:39:53;14.52;;;10.02;;
60582;SDS011;46415;47.536;19.066;2023-02-15T00:42:55;15.80;;;7.95;;
60582;SDS011;46415;47.536;19.066;2023-02-15T00:45:59;16.52;;;8.55;;
60582;SDS011;46415;47.536;19.066;2023-02-15T00:49:03;17.50;;;8.90;;
60582;SDS011;46415;47.536;19.066;2023-02-15T00:52:06;17.65;;;9.48;;
60582;SDS011;46415;47.536;19.066;2023-02-15T00:55:10;14.23;;;8.80;;
60582;SDS011;46415;47.536;19.066;2023-02-15T00:58:13;18.37;;;9.10;;
60582;SDS011;46415;47.536;19.066;2023-02-15T01:01:18;17.20;;;7.25;;
60582;SDS011;46415;47.536;19.066;2023-02-15T01:04:22;17.95;;;9.20;;
60582;SDS011;46415;47.536;19.066;2023-02-15T01:07:25;11.88;;;7.32;;
60582;SDS011;46415;47.536;19.066;2023-02-15T01:10:28;18.15;;;9.20;;
60582;SDS011;46415;47.536;19.066;2023-02-15T01:13:31;15.30;;;9.63;;
60582;SDS011;46415;47.536;19.066;2023-02-15T01:16:34;12.32;;;8.50;;
60582;SDS011;46415;47.536;19.066;2023-02-15T01:19:37;13.13;;;8.15;;
60582;SDS011;46415;47.536;19.066;2023-02-15T01:22:41;14.50;;;8.63;;
60582;SDS011;46415;47.536;19.066;2023-02-15T01:25:43;10.70;;;7.00;;
60582;SDS011;46415;47.536;19.066;2023-02-15T01:28:46;14.85;;;8.38;;
60582;SDS011;46415;47.536;19.066;2023-02-15T01:31:49;14.75;;;8.93;;
60582;SDS011;46415;47.536;19.066;2023-02-15T01:34:52;13.02;;;8.18;;
60582;SDS011;46415;47.536;19.066;2023-02-15T01:37:55;15.73;;;7.72;;
60582;SDS011;46415;47.536;19.066;2023-02-15T01:40:58;11.05;;;6.80;;
60582;SDS011;46415;47.536;19.066;2023-02-15T01:47:45;16.83;;;9.13;;
60582;SDS011;46415;47.536;19.066;2023-02-15T01:50:56;11.00;;;7.72;;
60582;SDS011;46415;47.536;19.066;2023-02-15T01:54:25;14.15;;;7.18;;
60582;SDS011;46415;47.536;19.066;2023-02-15T01:57:31;10.10;;;6.85;;
60582;SDS011;46415;47.536;19.066;2023-02-15T02:00:33;15.40;;;8.85;;
60582;SDS011;46415;47.536;19.066;2023-02-15T02:07:10;11.07;;;6.70;;
60582;SDS011;46415;47.536;19.066;2023-02-15T02:10:17;10.55;;;7.00;;
60582;SDS011;46415;47.536;19.066;2023-02-15T02:13:22;13.65;;;8.73;;
60582;SDS011;46415;47.536;19.066;2023-02-15T02:16:32;16.17;;;8.60;;
60582;SDS011;46415;47.536;19.066;2023-02-15T02:23:34;12.95;;;7.97;;
60582;SDS011;46415;47.536;19.066;2023-02-15T02:26:56;14.82;;;7.30;;
60582;SDS011;46415;47.536;19.066;2023-02-15T02:43:35;13.80;;;8.93;;
60582;SDS011;46415;47.536;19.066;2023-02-15T02:49:57;13.38;;;9.18;;
60582;SDS011;46415;47.536;19.066;2023-02-15T02:53:02;10.65;;;8.95;;
60582;SDS011;46415;47.536;19.066;2023-02-15T02:56:06;13.88;;;7.47;;
60582;SDS011;46415;47.536;19.066;2023-02-15T02:59:26;10.73;;;6.60;;
60582;SDS011;46415;47.536;19.066;2023-02-15T03:02:34;13.57;;;7.60;;
60582;SDS011;46415;47.536;19.066;2023-02-15T03:05:43;13.43;;;8.05;;
60582;SDS011;46415;47.536;19.066;2023-02-15T03:08:54;12.40;;;7.80;;
60582;SDS011;46415;47.536;19.066;2023-02-15T03:12:06;14.02;;;8.63;;
60582;SDS011;46415;47.536;19.066;2023-02-15T03:15:23;14.20;;;8.93;;
60582;SDS011;46415;47.536;19.066;2023-02-15T03:18:31;13.93;;;7.78;;
60582;SDS011;46415;47.536;19.066;2023-02-15T03:21:45;11.12;;;6.57;;
60582;SDS011;46415;47.536;19.066;2023-02-15T03:25:50;13.30;;;7.40;;
60582;SDS011;46415;47.536;19.066;2023-02-15T03:28:38;12.45;;;8.63;;
60582;SDS011;46415;47.536;19.066;2023-02-15T03:31:47;11.35;;;8.02;;
60582;SDS011;46415;47.536;19.066;2023-02-15T03:34:54;11.57;;;8.85;;
60582;SDS011;46415;47.536;19.066;2023-02-15T03:37:59;15.05;;;9.10;;
60582;SDS011;46415;47.536;19.066;2023-02-15T03:41:03;11.43;;;6.43;;
60582;SDS011;46415;47.536;19.066;2023-02-15T03:44:13;12.63;;;9.68;;
60582;SDS011;46415;47.536;19.066;2023-02-15T03:47:25;16.25;;;9.32;;
60582;SDS011;46415;47.536;19.066;2023-02-15T03:50:33;15.82;;;7.68;;
60582;SDS011;46415;47.536;19.066;2023-02-15T03:53:58;15.95;;;9.05;;
60582;SDS011;46415;47.536;19.066;2023-02-15T03:57:07;14.27;;;8.13;;
60582;SDS011;46415;47.536;19.066;2023-02-15T04:00:30;14.07;;;10.15;;
60582;SDS011;46415;47.536;19.066;2023-02-15T04:03:59;13.82;;;7.53;;
60582;SDS011;46415;47.536;19.066;2023-02-15T04:07:08;13.07;;;7.93;;
60582;SDS011;46415;47.536;19.066;2023-02-15T04:10:11;14.52;;;8.73;;
60582;SDS011;46415;47.536;19.066;2023-02-15T04:13:32;14.13;;;8.93;;
60582;SDS011;46415;47.536;19.066;2023-02-15T04:16:35;12.70;;;7.62;;
60582;SDS011;46415;47.536;19.066;2023-02-15T04:19:38;17.98;;;9.80;;
60582;SDS011;46415;47.536;19.066;2023-02-15T04:22:59;18.20;;;9.65;;
60582;SDS011;46415;47.536;19.066;2023-02-15T04:26:21;12.55;;;7.60;;
60582;SDS011;46415;47.536;19.066;2023-02-15T04:29:24;14.57;;;8.93;;
60582;SDS011;46415;47.536;19.066;2023-02-15T04:32:27;11.35;;;7.97;;
60582;SDS011;46415;47.536;19.066;2023-02-15T04:35:30;15.55;;;8.85;;
60582;SDS011;46415;47.536;19.066;2023-02-15T04:38:34;16.83;;;9.93;;
60582;SDS011;46415;47.536;19.066;2023-02-15T04:41:36;14.70;;;9.27;;
60582;SDS011;46415;47.536;19.066;2023-02-15T04:44:39;18.12;;;9.85;;
60582;SDS011;46415;47.536;19.066;2023-02-15T04:47:42;19.40;;;9.25;;
60582;SDS011;46415;47.536;19.066;2023-02-15T04:50:45;18.70;;;11.63;;
60582;SDS011;46415;47.536;19.066;2023-02-15T04:53:48;13.88;;;8.25;;
60582;SDS011;46415;47.536;19.066;2023-02-15T04:56:51;13.05;;;8.88;;
60582;SDS011;46415;47.536;19.066;2023-02-15T04:59:54;13.70;;;9.27;;
60582;SDS011;46415;47.536;19.066;2023-02-15T05:02:57;15.05;;;9.65;;
60582;SDS011;46415;47.536;19.066;2023-02-15T05:05:59;12.13;;;7.10;;
60582;SDS011;46415;47.536;19.066;2023-02-15T05:09:03;13.23;;;6.32;;
60582;SDS011;46415;47.536;19.066;2023-02-15T05:12:06;14.87;;;7.60;;
60582;SDS011;46415;47.536;19.066;2023-02-15T05:15:09;10.00;;;6.93;;
60582;SDS011;46415;47.536;19.066;2023-02-15T05:18:12;8.68;;;7.37;;
60582;SDS011;46415;47.536;19.066;2023-02-15T05:21:14;9.63;;;6.70;;
60582;SDS011;46415;47.536;19.066;2023-02-15T05:24:18;9.27;;;7.25;;
60582;SDS011;46415;47.536;19.066;2023-02-15T05:27:39;13.77;;;7.57;;
60582;SDS011;46415;47.536;19.066;2023-02-15T05:31:09;13.07;;;7.00;;
60582;SDS011;46415;47.536;19.066;2023-02-15T05:34:16;6.70;;;5.93;;
60582;SDS011;46415;47.536;19.066;2023-02-15T05:37:19;13.98;;;7.12;;
60582;SDS011;46415;47.536;19.066;2023-02-15T05:40:22;13.45;;;7.30;;
60582;SDS011;46415;47.536;19.066;2023-02-15T05:43:25;9.32;;;5.43;;
60582;SDS011;46415;47.536;19.066;2023-02-15T05:46:28;13.82;;;6.93;;
60582;SDS011;46415;47.536;19.066;2023-02-15T05:49:31;11.48;;;6.85;;
60582;SDS011;46415;47.536;19.066;2023-02-15T05:52:34;12.13;;;7.60;;
60582;SDS011;46415;47.536;19.066;2023-02-15T05:55:38;15.20;;;7.50;;
60582;SDS011;46415;47.536;19.066;2023-02-15T05:58:41;12.75;;;7.75;;
60582;SDS011;46415;47.536;19.066;2023-02-15T06:01:44;9.57;;;7.12;;
60582;SDS011;46415;47.536;19.066;2023-02-15T06:04:47;23.25;;;9.43;;
60582;SDS011;46415;47.536;19.066;2023-02-15T06:07:50;11.10;;;6.90;;
60582;SDS011;46415;47.536;19.066;2023-02-15T06:10:53;11.23;;;7.12;;
60582;SDS011;46415;47.536;19.066;2023-02-15T06:13:55;8.50;;;6.70;;
60582;SDS011;46415;47.536;19.066;2023-02-15T06:16:58;13.38;;;8.45;;
60582;SDS011;46415;47.536;19.066;2023-02-15T06:20:01;13.73;;;6.65;;
60582;SDS011;46415;47.536;19.066;2023-02-15T06:23:05;17.27;;;8.70;;
60582;SDS011;46415;47.536;19.066;2023-02-15T06:26:07;8.63;;;7.80;;
60582;SDS011;46415;47.536;19.066;2023-02-15T06:29:10;12.40;;;7.37;;
60582;SDS011;46415;47.536;19.066;2023-02-15T06:32:13;19.37;;;8.82;;
60582;SDS011;46415;47.536;19.066;2023-02-15T06:35:16;9.10;;;7.35;;
60582;SDS011;46415;47.536;19.066;2023-02-15T06:38:21;14.75;;;8.25;;
60582;SDS011;46415;47.536;19.066;2023-02-15T06:41:23;13.45;;;8.15;;
60582;SDS011;46415;47.536;19.066;2023-02-15T06:44:26;13.55;;;7.15;;
60582;SDS011;46415;47.536;19.066;2023-02-15T06:47:29;16.65;;;7.10;;
60582;SDS011;46415;47.536;19.066;2023-02-15T06:50:32;18.67;;;7.68;;
60582;SDS011;46415;47.536;19.066;2023-02-15T06:53:35;10.27;;;7.75;;
60582;SDS011;46415;47.536;19.066;2023-02-15T06:56:38;12.60;;;8.10;;
60582;SDS011;46415;47.536;19.066;2023-02-15T06:59:41;11.57;;;7.03;;
60582;SDS011;46415;47.536;19.066;2023-02-15T07:02:44;12.60;;;8.27;;
60582;SDS011;46415;47.536;19.066;2023-02-15T07:05:47;15.55;;;8.60;;
60582;SDS011;46415;47.536;19.066;2023-02-15T07:08:51;14.02;;;8.55;;
60582;SDS011;46415;47.536;19.066;2023-02-15T07:11:54;12.48;;;7.10;;
60582;SDS011;46415;47.536;19.066;2023-02-15T07:15:17;18.12;;;9.88;;
60582;SDS011;46415;47.536;19.066;2023-02-15T07:18:23;16.90;;;10.73;;
60582;SDS011;46415;47.536;19.066;2023-02-15T07:21:25;14.32;;;8.65;;
60582;SDS011;46415;47.536;19.066;2023-02-15T07:24:29;15.63;;;9.93;;
60582;SDS011;46415;47.536;19.066;2023-02-15T07:27:31;15.82;;;9.95;;
60582;SDS011;46415;47.536;19.066;2023-02-15T07:30:34;17.17;;;10.75;;
60582;SDS011;46415;47.536;19.066;2023-02-15T07:33:38;17.50;;;11.02;;
60582;SDS011;46415;47.536;19.066;2023-02-15T07:36:41;20.52;;;10.85;;
60582;SDS011;46415;47.536;19.066;2023-02-15T07:39:46;16.50;;;10.20;;
60582;SDS011;46415;47.536;19.066;2023-02-15T07:42:50;17.70;;;10.98;;
60582;SDS011;46415;47.536;19.066;2023-02-15T07:45:59;16.67;;;10.02;;
60582;SDS011;46415;47.536;19.066;2023-02-15T07:49:04;16.30;;;10.85;;
60582;SDS011;46415;47.536;19.066;2023-02-15T07:52:07;19.85;;;10.48;;
60582;SDS011;46415;47.536;19.066;2023-02-15T07:55:10;14.90;;;9.57;;
60582;SDS011;46415;47.536;19.066;2023-02-15T07:58:15;22.02;;;10.85;;
60582;SDS011;46415;47.536;19.066;2023-02-15T08:04:20;20.20;;;10.85;;
60582;SDS011;46415;47.536;19.066;2023-02-15T08:07:23;18.60;;;10.57;;
60582;SDS011;46415;47.536;19.066;2023-02-15T08:10:26;20.50;;;10.25;;
60582;SDS011;46415;47.536;19.066;2023-02-15T08:13:50;21.12;;;11.18;;
60582;SDS011;46415;47.536;19.066;2023-02-15T08:17:17;23.27;;;10.77;;
60582;SDS011;46415;47.536;19.066;2023-02-15T08:20:20;18.65;;;10.70;;
60582;SDS011;46415;47.536;19.066;2023-02-15T08:23:23;14.60;;;9.70;;
60582;SDS011;46415;47.536;19.066;2023-02-15T08:26:26;21.08;;;11.57;;
60582;SDS011;46415;47.536;19.066;2023-02-15T08:29:30;19.85;;;11.93;;
60582;SDS011;46415;47.536;19.066;2023-02-15T08:32:33;21.15;;;11.88;;
60582;SDS011;46415;47.536;19.066;2023-02-15T08:35:36;21.52;;;12.15;;
60582;SDS011;46415;47.536;19.066;2023-02-15T08:38:39;21.40;;;11.38;;
60582;SDS011;46415;47.536;19.066;2023-02-15T08:41:44;23.25;;;11.07;;
60582;SDS011;46415;47.536;19.066;2023-02-15T08:44:48;21.85;;;13.55;;
60582;SDS011;46415;47.536;19.066;2023-02-15T08:47:52;20.70;;;12.00;;
60582;SDS011;46415;47.536;19.066;2023-02-15T08:50:55;20.65;;;10.57;;
60582;SDS011;46415;47.536;19.066;2023-02-15T08:53:59;20.45;;;12.23;;
60582;SDS011;46415;47.536;19.066;2023-02-15T08:57:04;25.05;;;13.23;;
60582;SDS011;46415;47.536;19.066;2023-02-15T09:00:09;24.10;;;13.13;;
60582;SDS011;46415;47.536;19.066;2023-02-15T09:03:13;21.27;;;11.98;;
60582;SDS011;46415;47.536;19.066;2023-02-15T09:06:16;20.25;;;11.82;;
60582;SDS011;46415;47.536;19.066;2023-02-15T09:09:19;24.15;;;13.48;;
60582;SDS011;46415;47.536;19.066;2023-02-15T09:12:22;27.42;;;13.68;;
60582;SDS011;46415;47.536;19.066;2023-02-15T09:15:25;25.10;;;12.50;;
60582;SDS011;46415;47.536;19.066;2023-02-15T09:18:29;24.42;;;12.20;;
60582;SDS011;46415;47.536;19.066;2023-02-15T09:21:37;22.20;;;11.52;;
60582;SDS011;46415;47.536;19.066;2023-02-15T09:24:41;23.23;;;12.05;;
60582;SDS011;46415;47.536;19.066;2023-02-15T09:27:43;22.23;;;11.38;;
60582;SDS011;46415;47.536;19.066;2023-02-15T09:30:46;20.08;;;11.32;;
60582;SDS011;46415;47.536;19.066;2023-02-15T09:33:49;23.80;;;12.02;;
60582;SDS011;46415;47.536;19.066;2023-02-15T09:36:52;20.45;;;10.93;;
60582;SDS011;46415;47.536;19.066;2023-02-15T09:39:55;24.42;;;11.75;;
60582;SDS011;46415;47.536;19.066;2023-02-15T09:46:27;24.58;;;11.77;;
60582;SDS011;46415;47.536;19.066;2023-02-15T09:56:37;23.73;;;13.57;;
60582;SDS011;46415;47.536;19.066;2023-02-15T10:06:42;26.20;;;12.77;;
60582;SDS011;46415;47.536;19.066;2023-02-15T10:09:49;18.62;;;11.07;;
60582;SDS011;46415;47.536;19.066;2023-02-15T10:13:16;22.27;;;11.45;;
60582;SDS011;46415;47.536;19.066;2023-02-15T10:26:48;23.50;;;10.80;;
60582;SDS011;46415;47.536;19.066;2023-02-15T10:30:02;23.92;;;12.18;;
60582;SDS011;46415;47.536;19.066;2023-02-15T10:43:20;22.37;;;11.43;;
60582;SDS011;46415;47.536;19.066;2023-02-15T10:46:35;22.35;;;11.27;;
60582;SDS011;46415;47.536;19.066;2023-02-15T10:52:59;23.58;;;11.82;;
60582;SDS011;46415;47.536;19.066;2023-02-15T10:56:30;19.52;;;11.25;;
60582;SDS011;46415;47.536;19.066;2023-02-15T11:02:54;26.52;;;13.10;;
60582;SDS011;46415;47.536;19.066;2023-02-15T11:06:17;23.05;;;11.75;;
60582;SDS011;46415;47.536;19.066;2023-02-15T11:09:24;23.83;;;13.38;;
60582;SDS011;46415;47.536;19.066;2023-02-15T11:12:32;23.17;;;12.23;;
60582;SDS011;46415;47.536;19.066;2023-02-15T11:19:08;21.17;;;11.27;;
60582;SDS011;46415;47.536;19.066;2023-02-15T11:22:21;28.10;;;13.80;;
60582;SDS011;46415;47.536;19.066;2023-02-15T11:25:32;26.02;;;13.88;;
60582;SDS011;46415;47.536;19.066;2023-02-15T11:28:39;25.95;;;14.48;;
60582;SDS011;46415;47.536;19.066;2023-02-15T11:31:57;26.00;;;15.13;;
60582;SDS011;46415;47.536;19.066;2023-02-15T11:35:20;22.42;;;13.00;;
60582;SDS011;46415;47.536;19.066;2023-02-15T11:38:27;23.87;;;14.38;;
60582;SDS011;46415;47.536;19.066;2023-02-15T11:41:34;24.15;;;14.38;;
60582;SDS011;46415;47.536;19.066;2023-02-15T11:44:45;25.42;;;14.63;;
60582;SDS011;46415;47.536;19.066;2023-02-15T11:47:53;26.77;;;14.05;;
60582;SDS011;46415;47.536;19.066;2023-02-15T11:50:57;27.85;;;13.50;;
60582;SDS011;46415;47.536;19.066;2023-02-15T11:54:01;28.40;;;16.20;;
60582;SDS011;46415;47.536;19.066;2023-02-15T12:03:43;30.17;;;17.92;;
60582;SDS011;46415;47.536;19.066;2023-02-15T12:10:22;28.40;;;16.10;;
60582;SDS011;46415;47.536;19.066;2023-02-15T12:13:27;30.70;;;16.92;;
60582;SDS011;46415;47.536;19.066;2023-02-15T12:16:49;30.55;;;17.67;;
60582;SDS011;46415;47.536;19.066;2023-02-15T12:19:56;26.52;;;14.30;;
60582;SDS011;46415;47.536;19.066;2023-02-15T12:23:03;30.73;;;19.15;;
60582;SDS011;46415;47.536;19.066;2023-02-15T12:26:09;26.67;;;14.23;;
60582;SDS011;46415;47.536;19.066;2023-02-15T12:29:15;30.95;;;17.12;;
60582;SDS011;46415;47.536;19.066;2023-02-15T12:32:24;32.75;;;18.33;;
60582;SDS011;46415;47.536;19.066;2023-02-15T12:35:31;27.90;;;16.48;;
60582;SDS011;46415;47.536;19.066;2023-02-15T12:38:36;30.40;;;18.12;;
60582;SDS011;46415;47.536;19.066;2023-02-15T12:41:49;29.50;;;19.55;;
60582;SDS011;46415;47.536;19.066;2023-02-15T12:45:02;29.00;;;16.62;;
60582;SDS011;46415;47.536;19.066;2023-02-15T12:48:21;33.20;;;17.75;;
60582;SDS011;46415;47.536;19.066;2023-02-15T12:51:24;30.20;;;19.15;;
60582;SDS011;46415;47.536;19.066;2023-02-15T12:57:36;32.20;;;18.33;;
60582;SDS011;46415;47.536;19.066;2023-02-15T13:00:40;30.30;;;17.00;;
60582;SDS011;46415;47.536;19.066;2023-02-15T13:07:24;29.50;;;19.52;;
60582;SDS011;46415;47.536;19.066;2023-02-15T13:10:36;27.90;;;14.27;;
60582;SDS011;46415;47.536;19.066;2023-02-15T13:13:50;30.15;;;19.05;;
60582;SDS011;46415;47.536;19.066;2023-02-15T13:16:56;26.55;;;14.10;;
60582;SDS011;46415;47.536;19.066;2023-02-15T13:20:22;27.30;;;17.60;;
60582;SDS011;46415;47.536;19.066;2023-02-15T13:23:26;29.35;;;18.05;;
60582;SDS011;46415;47.536;19.066;2023-02-15T13:26:31;30.12;;;18.98;;
60582;SDS011;46415;47.536;19.066;2023-02-15T13:29:36;26.58;;;16.35;;
60582;SDS011;46415;47.536;19.066;2023-02-15T13:32:41;27.30;;;14.05;;
60582;SDS011;46415;47.536;19.066;2023-02-15T13:35:50;24.12;;;16.02;;
60582;SDS011;46415;47.536;19.066;2023-02-15T13:49:04;24.20;;;14.48;;
60582;SDS011;46415;47.536;19.066;2023-02-15T13:52:27;26.42;;;13.50;;
60582;SDS011;46415;47.536;19.066;2023-02-15T13:59:14;25.23;;;13.82;;
60582;SDS011;46415;47.536;19.066;2023-02-15T14:15:47;25.15;;;15.95;;
60582;SDS011;46415;47.536;19.066;2023-02-15T14:25:44;23.05;;;16.17;;
60582;SDS011;46415;47.536;19.066;2023-02-15T14:32:20;22.60;;;15.63;;
60582;SDS011;46415;47.536;19.066;2023-02-15T14:35:27;20.83;;;14.87;;
60582;SDS011;46415;47.536;19.066;2023-02-15T14:42:36;25.02;;;17.05;;
60582;SDS011;46415;47.536;19.066;2023-02-15T14:46:11;24.50;;;16.73;;
60582;SDS011;46415;47.536;19.066;2023-02-15T14:49:27;22.00;;;15.77;;
60582;SDS011;46415;47.536;19.066;2023-02-15T14:52:44;22.42;;;15.73;;
60582;SDS011;46415;47.536;19.066;2023-02-15T14:56:21;21.70;;;16.05;;
60582;SDS011;46415;47.536;19.066;2023-02-15T14:59:25;20.92;;;15.70;;
60582;SDS011;46415;47.536;19.066;2023-02-15T15:02:30;20.30;;;14.75;;
60582;SDS011;46415;47.536;19.066;2023-02-15T15:05:50;25.65;;;16.55;;
60582;SDS011;46415;47.536;19.066;2023-02-15T15:08:58;20.98;;;15.10;;
60582;SDS011;46415;47.536;19.066;2023-02-15T15:18:48;21.73;;;16.15;;
60582;SDS011;46415;47.536;19.066;2023-02-15T15:21:52;22.20;;;16.92;;
60582;SDS011;46415;47.536;19.066;2023-02-15T15:25:00;23.50;;;17.02;;
60582;SDS011;46415;47.536;19.066;2023-02-15T15:31:51;24.85;;;17.15;;
60582;SDS011;46415;47.536;19.066;2023-02-15T15:35:23;23.48;;;16.65;;
60582;SDS011;46415;47.536;19.066;2023-02-15T15:42:12;21.35;;;11.95;;
60582;SDS011;46415;47.536;19.066;2023-02-15T15:48:36;20.25;;;9.15;;
60582;SDS011;46415;47.536;19.066;2023-02-15T15:51:42;20.85;;;11.95;;
60582;SDS011;46415;47.536;19.066;2023-02-15T15:54:47;18.25;;;10.90;;
60582;SDS011;46415;47.536;19.066;2023-02-15T15:57:56;17.58;;;9.80;;
60582;SDS011;46415;47.536;19.066;2023-02-15T16:04:12;20.02;;;9.90;;
60582;SDS011;46415;47.536;19.066;2023-02-15T16:07:25;16.20;;;9.73;;
60582;SDS011;46415;47.536;19.066;2023-02-15T16:10:29;18.67;;;8.95;;
60582;SDS011;46415;47.536;19.066;2023-02-15T16:13:34;20.80;;;9.90;;
60582;SDS011;46415;47.536;19.066;2023-02-15T16:16:37;21.25;;;10.55;;
60582;SDS011;46415;47.536;19.066;2023-02-15T16:19:41;20.15;;;10.77;;
60582;SDS011;46415;47.536;19.066;2023-02-15T16:22:46;18.02;;;9.80;;
60582;SDS011;46415;47.536;19.066;2023-02-15T16:28:56;20.35;;;10.05;;
60582;SDS011;46415;47.536;19.066;2023-02-15T16:35:13;14.85;;;9.05;;
60582;SDS011;46415;47.536;19.066;2023-02-15T16:38:28;16.15;;;9.35;;
60582;SDS011;46415;47.536;19.066;2023-02-15T16:41:46;21.08;;;9.18;;
60582;SDS011;46415;47.536;19.066;2023-02-15T16:44:54;17.00;;;10.27;;
60582;SDS011;46415;47.536;19.066;2023-02-15T16:48:06;19.33;;;10.85;;
60582;SDS011;46415;47.536;19.066;2023-02-15T16:51:18;16.77;;;8.65;;
60582;SDS011;46415;47.536;19.066;2023-02-15T16:54:25;18.25;;;9.50;;
60582;SDS011;46415;47.536;19.066;2023-02-15T16:57:31;20.92;;;9.57;;
60582;SDS011;46415;47.536;19.066;2023-02-15T17:00:37;21.48;;;10.95;;
60582;SDS011;46415;47.536;19.066;2023-02-15T17:03:43;18.00;;;9.00;;
60582;SDS011;46415;47.536;19.066;2023-02-15T17:10:00;19.25;;;9.63;;
60582;SDS011;46415;47.536;19.066;2023-02-15T17:13:11;19.75;;;9.48;;
60582;SDS011;46415;47.536;19.066;2023-02-15T17:16:23;15.98;;;8.70;;
60582;SDS011;46415;47.536;19.066;2023-02-15T17:19:31;22.02;;;10.43;;
60582;SDS011;46415;47.536;19.066;2023-02-15T17:22:55;18.75;;;9.00;;
60582;SDS011;46415;47.536;19.066;2023-02-15T17:26:00;23.40;;;10.07;;
60582;SDS011;46415;47.536;19.066;2023-02-15T17:29:20;22.85;;;10.75;;
60582;SDS011;46415;47.536;19.066;2023-02-15T17:32:35;18.27;;;9.95;;
60582;SDS011;46415;47.536;19.066;2023-02-15T17:35:38;20.17;;;9.75;;
60582;SDS011;46415;47.536;19.066;2023-02-15T17:41:59;18.52;;;8.65;;
60582;SDS011;46415;47.536;19.066;2023-02-15T17:45:03;17.37;;;9.30;;
60582;SDS011;46415;47.536;19.066;2023-02-15T17:48:06;18.33;;;9.88;;
60582;SDS011;46415;47.536;19.066;2023-02-15T17:51:21;25.50;;;10.13;;
60582;SDS011;46415;47.536;19.066;2023-02-15T17:54:25;18.17;;;10.60;;
60582;SDS011;46415;47.536;19.066;2023-02-15T17:57:55;15.07;;;9.68;;
60582;SDS011;46415;47.536;19.066;2023-02-15T18:01:05;20.05;;;10.13;;
60582;SDS011;46415;47.536;19.066;2023-02-15T18:04:31;17.23;;;8.55;;
60582;SDS011;46415;47.536;19.066;2023-02-15T18:07:56;17.23;;;10.45;;
60582;SDS011;46415;47.536;19.066;2023-02-15T18:11:18;18.45;;;10.45;;
60582;SDS011;46415;47.536;19.066;2023-02-15T18:14:39;18.83;;;9.50;;
60582;SDS011;46415;47.536;19.066;2023-02-15T18:17:43;15.43;;;8.88;;
60582;SDS011;46415;47.536;19.066;2023-02-15T18:20:48;17.48;;;9.13;;
60582;SDS011;46415;47.536;19.066;2023-02-15T18:23:52;18.95;;;10.00;;
60582;SDS011;46415;47.536;19.066;2023-02-15T18:26:55;20.33;;;10.73;;
60582;SDS011;46415;47.536;19.066;2023-02-15T18:29:58;23.48;;;11.25;;
60582;SDS011;46415;47.536;19.066;2023-02-15T18:33:01;21.20;;;10.98;;
60582;SDS011;46415;47.536;19.066;2023-02-15T18:36:06;23.45;;;10.27;;
60582;SDS011;46415;47.536;19.066;2023-02-15T18:39:21;20.52;;;9.75;;
60582;SDS011;46415;47.536;19.066;2023-02-15T18:42:29;25.58;;;10.95;;
60582;SDS011;46415;47.536;19.066;2023-02-15T18:45:35;16.83;;;9.05;;
60582;SDS011;46415;47.536;19.066;2023-02-15T18:48:40;25.65;;;11.57;;
60582;SDS011;46415;47.536;19.066;2023-02-15T18:51:43;20.75;;;10.07;;
60582;SDS011;46415;47.536;19.066;2023-02-15T18:54:54;21.55;;;10.43;;
60582;SDS011;46415;47.536;19.066;2023-02-15T18:58:01;18.10;;;9.57;;
60582;SDS011;46415;47.536;19.066;2023-02-15T19:01:05;21.70;;;10.00;;
60582;SDS011;46415;47.536;19.066;2023-02-15T19:04:08;22.00;;;10.05;;
60582;SDS011;46415;47.536;19.066;2023-02-15T19:07:14;21.08;;;10.25;;
60582;SDS011;46415;47.536;19.066;2023-02-15T19:10:21;19.17;;;9.30;;
60582;SDS011;46415;47.536;19.066;2023-02-15T19:13:26;18.12;;;9.07;;
60582;SDS011;46415;47.536;19.066;2023-02-15T19:16:31;19.65;;;10.05;;
60582;SDS011;46415;47.536;19.066;2023-02-15T19:19:36;18.77;;;9.73;;
60582;SDS011;46415;47.536;19.066;2023-02-15T19:22:38;18.70;;;10.48;;
60582;SDS011;46415;47.536;19.066;2023-02-15T19:25:42;20.27;;;10.60;;
60582;SDS011;46415;47.536;19.066;2023-02-15T19:28:45;15.60;;;9.80;;
60582;SDS011;46415;47.536;19.066;2023-02-15T19:31:49;14.38;;;8.98;;
60582;SDS011;46415;47.536;19.066;2023-02-15T19:34:52;18.27;;;9.13;;
60582;SDS011;46415;47.536;19.066;2023-02-15T19:37:57;19.70;;;9.55;;
60582;SDS011;46415;47.536;19.066;2023-02-15T19:41:06;19.75;;;10.48;;
60582;SDS011;46415;47.536;19.066;2023-02-15T19:44:11;25.88;;;10.55;;
60582;SDS011;46415;47.536;19.066;2023-02-15T19:47:15;14.18;;;9.32;;
60582;SDS011;46415;47.536;19.066;2023-02-15T19:50:19;16.55;;;9.93;;
60582;SDS011;46415;47.536;19.066;2023-02-15T19:53:24;15.35;;;10.43;;
60582;SDS011;46415;47.536;19.066;2023-02-15T19:56:30;18.48;;;9.48;;
60582;SDS011;46415;47.536;19.066;2023-02-15T19:59:33;18.90;;;9.77;;
60582;SDS011;46415;47.536;19.066;2023-02-15T20:02:36;14.60;;;8.52;;
60582;SDS011;46415;47.536;19.066;2023-02-15T20:05:40;21.23;;;9.90;;
60582;SDS011;46415;47.536;19.066;2023-02-15T20:08:44;15.50;;;9.82;;
60582;SDS011;46415;47.536;19.066;2023-02-15T20:11:47;20.20;;;10.23;;
60582;SDS011;46415;47.536;19.066;2023-02-15T20:14:51;19.92;;;10.45;;
60582;SDS011;46415;47.536;19.066;2023-02-15T20:17:55;18.05;;;10.30;;
60582;SDS011;46415;47.536;19.066;2023-02-15T20:21:00;19.45;;;11.02;;
60582;SDS011;46415;47.536;19.066;2023-02-15T20:24:05;19.77;;;10.25;;
60582;SDS011;46415;47.536;19.066;2023-02-15T20:27:13;20.52;;;10.10;;
60582;SDS011;46415;47.536;19.066;2023-02-15T20:30:20;25.17;;;11.07;;
60582;SDS011;46415;47.536;19.066;2023-02-15T20:33:25;20.25;;;10.15;;
60582;SDS011;46415;47.536;19.066;2023-02-15T20:36:29;18.17;;;9.90;;
60582;SDS011;46415;47.536;19.066;2023-02-15T20:39:32;17.05;;;10.23;;
60582;SDS011;46415;47.536;19.066;2023-02-15T20:42:36;18.40;;;10.57;;
60582;SDS011;46415;47.536;19.066;2023-02-15T20:45:39;20.83;;;10.85;;
60582;SDS011;46415;47.536;19.066;2023-02-15T20:48:43;23.52;;;11.48;;
60582;SDS011;46415;47.536;19.066;2023-02-15T20:51:46;18.42;;;11.07;;
60582;SDS011;46415;47.536;19.066;2023-02-15T20:54:50;22.52;;;11.02;;
60582;SDS011;46415;47.536;19.066;2023-02-15T20:57:53;18.58;;;9.23;;